Time;durP1;ratioP1;P1;durP2;ratioP2;P2;SDS_P1;SDS_P2;PMS_P1;PMS_P2;Temp;Humidity;BMP_temperature;BMP_pressure;BME280_temperature;BME280_humidity;BME280_pressure;Samples;Min_cycle;Max_cycle;Signal;HPM_P1;HPM_P2
2023/08/10 00:00:39;;;;;;;10.50;7.10;;;;;;;11.12;82.54;100116.66;219140;1256;140569;-67
2023/08/10 00:06:04;;;;;;;9.20;7.10;;;;;;;11.13;82.71;100117.05;220501;1255;140869;-67
2023/08/10 00:11:11;;;;;;;8.20;7.40;;;;;;;11.13;82.68;100113.07;219340;1256;141061;-71
2023/08/10 00:16:17;;;;;;;8.40;6.70;;;;;;;11.12;82.49;100106.75;220219;1256;140302;-66
2023/08/10 00:21:22;;;;;;;11.70;7.40;;;;;;;11.10;82.47;100111.17;218824;1256;140798;-69
2023/08/10 00:26:28;;;;;;;17.70;6.60;;;;;;;11.05;82.51;100113.96;219428;1256;140667;-70
2023/08/10 00:31:34;;;;;;;9.60;7.30;;;;;;;11.00;82.45;100114.05;218029;1257;140102;-68
2023/08/10 00:36:39;;;;;;;9.60;7.30;;;;;;;10.93;82.34;100116.55;218604;1257;140894;-67
2023/08/10 00:41:44;;;;;;;12.10;9.60;;;;;;;10.92;82.82;100118.33;218830;1256;140571;-67
2023/08/10 00:46:50;;;;;;;8.90;8.00;;;;;;;10.93;83.06;100117.73;217870;1259;140980;-69
2023/08/10 00:51:56;;;;;;;10.30;8.60;;;;;;;10.91;82.99;100119.77;218698;1257;141034;-69
2023/08/10 00:57:02;;;;;;;8.70;7.90;;;;;;;10.87;83.14;100122.48;217806;1257;141032;-69
2023/08/10 01:02:07;;;;;;;11.10;8.30;;;;;;;10.84;82.91;100125.54;218161;1257;141604;-70
2023/08/10 01:07:41;;;;;;;8.90;6.70;;;;;;;10.78;83.12;100128.27;218524;1257;140433;-68
2023/08/10 01:13:30;;;;;;;8.30;7.30;;;;;;;10.74;83.20;100131.77;218209;1257;140689;-68
2023/08/10 01:18:37;;;;;;;10.10;7.40;;;;;;;10.70;83.37;100131.69;218679;1257;139979;-66
2023/08/10 01:23:44;;;;;;;9.10;6.80;;;;;;;10.70;83.61;100131.63;218899;1256;142957;-66
2023/08/10 01:28:51;;;;;;;8.80;7.00;;;;;;;10.67;83.44;100134.64;218036;1257;141355;-67
2023/08/10 01:33:57;;;;;;;9.60;7.60;;;;;;;10.62;83.48;100141.34;219473;1257;142304;-67
2023/08/10 01:39:02;;;;;;;10.10;7.70;;;;;;;10.58;83.56;100139.30;219885;1256;140183;-67
2023/08/10 01:44:07;;;;;;;7.10;6.20;;;;;;;10.60;83.70;100140.91;219732;1256;140008;-67
2023/08/10 01:49:14;;;;;;;12.10;7.50;;;;;;;10.58;83.63;100141.02;220150;1256;140568;-68
2023/08/10 01:54:21;;;;;;;11.80;5.60;;;;;;;10.54;83.44;100141.27;220330;1257;141814;-68
2023/08/10 01:59:28;;;;;;;8.00;7.30;;;;;;;10.49;83.55;100147.69;219819;1256;139899;-68
2023/08/10 02:04:34;;;;;;;6.80;6.10;;;;;;;10.46;83.55;100144.73;220604;1256;142853;-69
2023/08/10 02:09:40;;;;;;;8.20;6.20;;;;;;;10.47;83.57;100140.70;219454;1257;142395;-68
2023/08/10 02:14:45;;;;;;;10.70;6.10;;;;;;;10.42;83.38;100143.96;219565;1256;140619;-68
2023/08/10 02:19:50;;;;;;;11.40;8.60;;;;;;;10.34;83.55;100144.56;219007;1256;142096;-67
2023/08/10 02:24:55;;;;;;;7.90;7.10;;;;;;;10.34;83.73;100148.54;219615;1256;141218;-68
2023/08/10 02:30:00;;;;;;;7.30;6.60;;;;;;;10.30;83.41;100144.23;218183;1256;140117;-68
2023/08/10 02:35:08;;;;;;;12.90;7.60;;;;;;;10.18;83.21;100147.61;218862;1255;141350;-68
2023/08/10 02:40:15;;;;;;;10.90;7.30;;;;;;;10.06;83.48;100144.33;218347;1257;140562;-69
2023/08/10 02:45:21;;;;;;;18.70;9.60;;;;;;;10.00;83.83;100153.95;218762;1257;140795;-70
2023/08/10 02:50:26;;;;;;;13.20;8.00;;;;;;;9.99;84.01;100153.84;218699;1256;140382;-70
2023/08/10 02:55:32;;;;;;;10.50;7.20;;;;;;;9.94;83.66;100156.27;217915;1257;140690;-70
2023/08/10 03:00:38;;;;;;;8.60;7.40;;;;;;;9.81;83.24;100157.70;217980;1257;1345926;-69
2023/08/10 03:05:44;;;;;;;11.00;7.10;;;;;;;9.72;83.64;100164.40;218508;1256;140600;-69
2023/08/10 03:10:50;;;;;;;7.80;7.00;;;;;;;9.68;83.61;100167.36;218681;1255;140411;-70
2023/08/10 03:15:55;;;;;;;45.80;9.40;;;;;;;9.60;83.45;100169.07;218746;1259;140798;-70
2023/08/10 03:21:00;;;;;;;9.00;7.70;;;;;;;9.54;83.47;100174.06;218459;1256;140334;-69
2023/08/10 03:26:05;;;;;;;6.70;6.00;;;;;;;9.50;83.62;100184.79;218498;1256;141222;-69
2023/08/10 03:31:14;;;;;;;6.70;5.40;;;;;;;9.42;83.61;100189.41;219360;1257;139981;-70
2023/08/10 03:36:20;;;;;;;8.20;7.30;;;;;;;9.38;83.51;100194.48;219118;1257;140980;-68
2023/08/10 03:41:24;;;;;;;7.60;6.70;;;;;;;9.33;83.61;100198.67;218951;1256;140560;-68
2023/08/10 03:46:28;;;;;;;32.00;6.80;;;;;;;9.30;83.62;100194.96;219304;1256;140070;-67
2023/08/10 03:51:33;;;;;;;6.30;5.70;;;;;;;9.32;83.95;100204.65;220295;1256;140863;-67
2023/08/10 03:56:39;;;;;;;6.00;5.40;;;;;;;9.39;84.06;100209.11;220287;1255;140674;-67
2023/08/10 04:01:44;;;;;;;7.20;6.60;;;;;;;9.48;83.97;100213.50;220416;1256;141986;-68
2023/08/10 04:06:48;;;;;;;5.70;5.20;;;;;;;9.62;84.20;100217.98;218979;1255;140195;-67
2023/08/10 04:11:55;;;;;;;6.10;5.60;;;;;;;9.74;83.92;100222.85;219935;1256;141472;-67
2023/08/10 04:17:00;;;;;;;4.40;4.10;;;;;;;9.97;83.66;100220.98;218650;1257;140689;-66
2023/08/10 04:22:06;;;;;;;8.00;5.90;;;;;;;10.09;83.66;100222.05;219387;1257;140517;-67
2023/08/10 04:27:11;;;;;;;6.00;5.40;;;;;;;10.21;83.73;100225.31;218738;1257;140522;-67
2023/08/10 04:32:17;;;;;;;7.30;6.40;;;;;;;10.44;83.89;100228.73;219084;1256;140078;-66
2023/08/10 04:37:21;;;;;;;6.20;5.70;;;;;;;10.71;83.99;100231.58;218404;1256;140124;-66
2023/08/10 04:42:26;;;;;;;6.80;6.20;;;;;;;10.86;84.02;100235.86;218115;1257;140096;-68
2023/08/10 04:47:33;;;;;;;6.30;5.80;;;;;;;10.97;84.21;100245.55;218248;1257;141558;-68
2023/08/10 04:52:40;;;;;;;9.20;6.90;;;;;;;11.08;84.37;100252.66;218484;1256;140708;-69
2023/08/10 04:57:45;;;;;;;7.10;6.10;;;;;;;11.21;84.51;100249.98;218838;1256;140856;-69
2023/08/10 05:02:51;;;;;;;7.50;6.80;;;;;;;11.40;85.16;100250.33;218633;1259;140587;-69
2023/08/10 05:07:57;;;;;;;7.40;6.70;;;;;;;11.59;85.74;100253.55;218495;1257;140743;-69
2023/08/10 05:13:02;;;;;;;7.20;6.00;;;;;;;11.78;85.92;100260.55;218019;1256;140358;-69
2023/08/10 05:18:09;;;;;;;7.80;7.00;;;;;;;11.96;86.17;100261.00;217992;1256;140779;-69
2023/08/10 05:23:15;;;;;;;6.60;6.00;;;;;;;12.26;86.28;100263.35;219211;1259;140336;-69
2023/08/10 05:28:20;;;;;;;7.90;6.90;;;;;;;12.98;85.64;100259.39;218905;1257;142088;-69
2023/08/10 05:33:26;;;;;;;6.20;5.70;;;;;;;13.21;85.96;100263.38;219108;1257;140858;-70
2023/08/10 05:38:30;;;;;;;7.40;5.50;;;;;;;14.04;84.84;100262.08;218495;1257;140583;-70
2023/08/10 05:43:36;;;;;;;5.80;5.30;;;;;;;15.01;83.89;100261.63;217608;1257;140315;-71
2023/08/10 05:48:41;;;;;;;6.30;5.80;;;;;;;18.63;78.14;100257.83;218792;1257;141014;-70
2023/08/10 05:53:51;;;;;;;5.10;4.80;;;;;;;20.82;75.55;100269.19;219810;1255;142030;-68
2023/08/10 05:58:58;;;;;;;;;;;;;;;20.47;76.11;100268.92;220606;1257;141454;-67
2023/08/10 06:04:04;;;;;;;4.80;4.30;;;;;;;19.78;74.39;100267.52;219702;1259;126408;-66
2023/08/10 06:09:11;;;;;;;6.60;4.70;;;;;;;19.21;73.56;100274.00;218976;1257;141975;-66
2023/08/10 06:14:17;;;;;;;4.80;3.80;;;;;;;18.76;74.04;100273.65;218102;1257;140095;-68
2023/08/10 06:19:23;;;;;;;4.40;4.00;;;;;;;18.29;74.28;100277.69;218210;1257;140835;-69
2023/08/10 06:24:29;;;;;;;4.30;3.40;;;;;;;18.04;74.17;100271.77;219635;1257;139793;-66
2023/08/10 06:29:35;;;;;;;3.40;3.00;;;;;;;17.71;74.15;100278.73;218522;1257;140119;-70
2023/08/10 06:34:39;;;;;;;11.70;3.20;;;;;;;17.39;73.84;100283.45;218539;1255;141347;-70
2023/08/10 06:39:46;;;;;;;3.10;2.60;;;;;;;17.19;74.48;100294.86;218429;1256;140078;-70
2023/08/10 06:44:51;;;;;;;3.10;2.50;;;;;;;17.27;75.04;100297.11;217534;1257;141943;-68
2023/08/10 06:49:56;;;;;;;3.20;3.00;;;;;;;17.56;74.78;100300.69;217619;1257;140027;-70
2023/08/10 06:55:02;;;;;;;5.90;3.00;;;;;;;18.34;74.04;100306.34;217964;1257;140491;-70
2023/08/10 07:00:07;;;;;;;3.90;3.30;;;;;;;19.34;72.89;100306.85;218510;1259;140774;-69
2023/08/10 07:05:16;;;;;;;2.10;1.90;;;;;;;20.91;71.46;100315.93;217821;1259;141064;-68
2023/08/10 07:10:22;;;;;;;4.30;2.50;;;;;;;22.66;68.95;100312.13;218504;1259;140845;-69
2023/08/10 07:15:28;;;;;;;4.40;2.40;;;;;;;24.20;67.22;100316.70;218408;1259;139598;-68
2023/08/10 07:20:33;;;;;;;2.60;2.40;;;;;;;25.16;65.22;100314.54;218716;1258;139158;-69
2023/08/10 07:25:40;;;;;;;2.90;2.60;;;;;;;25.80;63.76;100315.73;219792;1256;140650;-67
2023/08/10 07:30:47;;;;;;;2.90;2.40;;;;;;;26.16;61.71;100314.84;217778;1257;139483;-68
2023/08/10 07:35:53;;;;;;;1.60;1.50;;;;;;;26.49;60.45;100319.55;219212;1257;139798;-67
2023/08/10 07:40:58;;;;;;;2.10;1.80;;;;;;;26.45;58.58;100326.47;219210;1257;139919;-70
2023/08/10 07:46:05;;;;;;;5.00;2.20;;;;;;;26.05;57.40;100331.12;219567;1259;139647;-69
2023/08/10 07:51:10;;;;;;;5.80;1.80;;;;;;;25.95;56.87;100332.05;220399;1259;139945;-72
2023/08/10 07:56:15;;;;;;;2.90;1.30;;;;;;;26.05;56.67;100332.23;220294;1257;139795;-72
2023/08/10 08:01:19;;;;;;;4.30;1.50;;;;;;;26.23;55.70;100328.11;218678;1258;139693;-71
2023/08/10 08:06:24;;;;;;;1.90;1.70;;;;;;;26.12;54.94;100331.81;219820;1259;140034;-70
2023/08/10 08:11:29;;;;;;;3.60;1.60;;;;;;;25.93;53.91;100331.33;219185;1256;140022;-68
2023/08/10 08:16:35;;;;;;;3.40;1.20;;;;;;;25.87;54.11;100334.06;218213;1258;139998;-71
2023/08/10 08:21:39;;;;;;;2.90;1.80;;;;;;;25.92;53.06;100330.34;219049;1257;139969;-70
2023/08/10 08:26:44;;;;;;;2.20;1.30;;;;;;;25.80;51.76;100327.45;218960;1257;139394;-70
2023/08/10 08:31:49;;;;;;;1.30;1.20;;;;;;;25.81;51.87;100330.40;217629;1257;140961;-71
2023/08/10 08:36:53;;;;;;;2.30;1.10;;;;;;;25.78;51.28;100324.64;218288;1259;139650;-69
2023/08/10 08:41:59;;;;;;;1.90;1.20;;;;;;;25.78;50.02;100329.23;218481;1258;139378;-71
2023/08/10 08:47:07;;;;;;;2.70;1.00;;;;;;;25.87;49.42;100331.72;218147;1257;139350;-72
2023/08/10 08:52:12;;;;;;;2.40;0.90;;;;;;;25.82;48.76;100334.36;218516;1259;140359;-73
2023/08/10 08:57:16;;;;;;;2.60;1.10;;;;;;;25.75;48.33;100334.16;218071;1259;140455;-70
2023/08/10 09:02:20;;;;;;;1.30;1.00;;;;;;;25.69;47.57;100328.77;217740;1260;139433;-73
2023/08/10 09:07:29;;;;;;;2.50;1.70;;;;;;;25.75;47.78;100329.98;218260;1257;140540;-69
2023/08/10 09:12:39;;;;;;;3.60;1.60;;;;;;;25.71;47.35;100327.98;219136;1257;139061;-70
2023/08/10 09:17:47;;;;;;;2.40;1.20;;;;;;;25.64;47.12;100330.48;218016;1259;139787;-69
2023/08/10 09:22:56;;;;;;;1.10;1.00;;;;;;;25.35;46.85;100334.70;217982;1260;139047;-70
2023/08/10 09:28:10;;;;;;;3.80;0.90;;;;;;;25.17;47.40;100337.39;219395;1257;139539;-71
2023/08/10 09:33:31;;;;;;;23.70;1.90;;;;;;;25.33;47.12;100336.36;219300;1259;139923;-72
2023/08/10 09:38:35;;;;;;;1.20;1.00;;;;;;;25.33;47.02;100337.67;219399;1257;140365;-73
2023/08/10 09:43:43;;;;;;;3.00;1.40;;;;;;;25.40;46.38;100332.52;220342;1257;139186;-72
2023/08/10 09:48:49;;;;;;;1.30;1.00;;;;;;;25.52;46.19;100332.45;219920;1257;139658;-70
2023/08/10 09:53:56;;;;;;;2.20;1.30;;;;;;;25.73;45.86;100330.44;220307;1257;222236;-69
2023/08/10 09:59:02;;;;;;;2.20;1.30;;;;;;;25.87;45.11;100334.39;219695;1257;141090;-71
2023/08/10 10:04:07;;;;;;;1.10;1.00;;;;;;;25.78;45.06;100331.98;218115;1260;139952;-71
2023/08/10 10:09:13;;;;;;;;;;;;;;;25.84;45.01;100335.96;217755;1257;139293;-71
2023/08/10 10:14:20;;;;;;;0.90;0.90;;;;;;;25.82;44.91;100338.08;219395;1260;126225;-73
2023/08/10 10:19:27;;;;;;;1.80;1.10;;;;;;;25.81;44.88;100338.88;219614;1255;140342;-72
2023/08/10 10:24:34;;;;;;;19.40;1.90;;;;;;;25.97;44.63;100335.46;218298;1257;140082;-72
2023/08/10 10:30:01;;;;;;;3.80;1.50;;;;;;;26.40;44.52;100334.70;218626;1257;139217;-72
2023/08/10 10:35:08;;;;;;;6.60;1.70;;;;;;;26.72;43.68;100336.66;217748;1257;139366;-71
2023/08/10 10:40:23;;;;;;;1.50;0.70;;;;;;;26.89;42.68;100333.32;217542;1257;139281;-70
2023/08/10 10:45:42;;;;;;;2.00;0.90;;;;;;;27.07;42.53;100337.21;217600;1260;140265;-72
2023/08/10 10:50:48;;;;;;;3.20;1.00;;;;;;;27.21;42.20;100334.43;217912;1260;139660;-72
2023/08/10 10:55:53;;;;;;;2.00;1.30;;;;;;;26.76;41.61;100333.08;218597;1257;140616;-71
2023/08/10 11:00:58;;;;;;;10.10;1.90;;;;;;;26.12;41.53;100334.73;217919;1257;140280;-71
2023/08/10 11:06:20;;;;;;;1.90;1.20;;;;;;;25.51;42.48;100332.90;218049;1257;140306;-72
2023/08/10 11:11:25;;;;;;;1.60;1.20;;;;;;;25.54;42.43;100327.41;218590;1257;140632;-72
2023/08/10 11:16:41;;;;;;;4.70;1.20;;;;;;;25.54;42.60;100328.12;218703;1258;140437;-72
2023/08/10 11:21:51;;;;;;;1.40;1.20;;;;;;;25.44;42.30;100329.45;218710;1257;140239;-71
2023/08/10 11:26:59;;;;;;;2.70;1.20;;;;;;;24.91;42.10;100322.80;219190;1257;141280;-70
2023/08/10 11:32:05;;;;;;;1.70;1.40;;;;;;;24.33;42.22;100324.73;218449;1255;140261;-70
2023/08/10 11:37:11;;;;;;;1.10;1.00;;;;;;;23.92;43.06;100326.78;217792;1260;140159;-70
2023/08/10 11:42:16;;;;;;;5.70;1.60;;;;;;;23.63;43.26;100326.09;219840;1256;139450;-71
2023/08/10 11:47:21;;;;;;;2.80;1.00;;;;;;;23.50;43.61;100321.41;220549;1256;140490;-72
2023/08/10 11:52:26;;;;;;;2.20;1.40;;;;;;;23.34;43.85;100317.51;219366;1256;140417;-70
2023/08/10 11:57:36;;;;;;;;;;;;;;;23.32;44.31;100311.85;220410;1256;140062;-72
2023/08/10 12:02:41;;;;;;;0.90;0.90;;;;;;;23.31;44.10;100303.55;219583;1257;126849;-71
2023/08/10 12:07:48;;;;;;;1.80;1.10;;;;;;;23.82;43.09;100293.10;220108;1257;139493;-73
2023/08/10 12:13:03;;;;;;;4.20;1.30;;;;;;;24.27;42.03;100290.02;218859;1255;139254;-71
2023/08/10 12:18:09;;;;;;;2.90;1.10;;;;;;;24.60;42.12;100291.34;219639;1257;139898;-72
2023/08/10 12:23:16;;;;;;;2.80;1.90;;;;;;;25.07;41.94;100289.10;219154;1257;140623;-72
2023/08/10 12:28:20;;;;;;;2.30;1.50;;;;;;;25.47;41.42;100288.39;219719;1257;139616;-72
2023/08/10 12:33:26;;;;;;;2.70;1.20;;;;;;;25.66;41.50;100284.77;218194;1257;139457;-71
2023/08/10 12:38:32;;;;;;;7.10;1.20;;;;;;;25.56;41.00;100283.89;218795;1257;140704;-73
2023/08/10 12:43:37;;;;;;;1.50;1.00;;;;;;;25.49;40.96;100281.27;217932;1260;139862;-68
2023/08/10 12:48:43;;;;;;;;;;;;;;;25.30;40.98;100285.07;218745;1258;140217;-70
2023/08/10 12:53:55;;;;;;;1.70;1.20;;;;;;;25.24;40.71;100286.72;218534;1257;125947;-70
2023/08/10 12:59:04;;;;;;;1.40;1.10;;;;;;;25.63;40.42;100283.79;218332;1257;139599;-69
2023/08/10 13:04:11;;;;;;;1.10;1.00;;;;;;;25.58;39.96;100283.86;218974;1257;139478;-67
2023/08/10 13:09:16;;;;;;;1.20;1.00;;;;;;;25.13;39.97;100287.35;219140;1256;139390;-68
2023/08/10 13:14:23;;;;;;;2.30;1.00;;;;;;;24.88;40.02;100284.06;219029;1256;140766;-69
2023/08/10 13:19:28;;;;;;;4.80;1.00;;;;;;;24.62;40.39;100277.21;219461;1256;140657;-68
2023/08/10 13:24:33;;;;;;;1.50;1.00;;;;;;;24.78;40.66;100278.05;218703;1256;139549;-69
2023/08/10 13:29:37;;;;;;;2.90;1.20;;;;;;;25.15;39.95;100272.60;220386;1256;140590;-70
2023/08/10 13:34:42;;;;;;;1.20;1.10;;;;;;;25.33;39.77;100273.25;218337;1257;140269;-66
2023/08/10 13:39:47;;;;;;;1.10;1.00;;;;;;;25.03;39.34;100273.72;219579;1257;141451;-68
2023/08/10 13:44:51;;;;;;;1.00;0.80;;;;;;;24.61;39.45;100275.77;219564;1255;140795;-69
2023/08/10 13:49:55;;;;;;;6.80;1.50;;;;;;;24.36;39.76;100270.45;220461;1255;140490;-71
2023/08/10 13:55:03;;;;;;;1.60;0.80;;;;;;;24.11;40.04;100269.55;220318;1257;139496;-71
2023/08/10 14:00:09;;;;;;;2.60;0.90;;;;;;;23.88;40.24;100264.41;220382;1256;139981;-69
2023/08/10 14:05:15;;;;;;;22.90;3.00;;;;;;;24.01;40.32;100256.80;219129;1256;139176;-69
2023/08/10 14:10:18;;;;;;;2.90;1.30;;;;;;;24.11;40.30;100256.96;218596;1257;139914;-72
2023/08/10 14:15:23;;;;;;;1.30;1.20;;;;;;;24.02;41.77;100259.83;218471;1257;139676;-69
2023/08/10 14:20:28;;;;;;;;;;;;;;;23.87;41.69;100259.17;217951;1257;139605;-69
2023/08/10 14:25:32;;;;;;;2.00;0.70;;;;;;;23.93;41.47;100257.01;218797;1257;126127;-68
2023/08/10 14:30:36;;;;;;;1.20;1.10;;;;;;;24.05;40.56;100254.52;218380;1257;139977;-69
2023/08/10 14:35:40;;;;;;;1.00;0.90;;;;;;;24.36;40.56;100256.72;218808;1256;139608;-70
2023/08/10 14:40:43;;;;;;;0.80;0.80;;;;;;;24.70;40.22;100250.23;218853;1258;141566;-66
2023/08/10 14:45:47;;;;;;;1.60;1.40;;;;;;;24.90;39.77;100255.73;219332;1257;139499;-67
2023/08/10 14:50:51;;;;;;;3.10;1.00;;;;;;;24.86;39.38;100250.02;218246;1256;139622;-66
2023/08/10 14:55:57;;;;;;;2.10;1.10;;;;;;;24.80;39.09;100252.42;219016;1256;139586;-66
2023/08/10 15:01:02;;;;;;;58.00;4.50;;;;;;;24.81;38.74;100247.78;217710;1257;560378;-68
2023/08/10 15:06:07;;;;;;;7.60;2.60;;;;;;;24.77;38.80;100253.55;217625;1256;140021;-69
2023/08/10 15:11:15;;;;;;;6.90;4.70;;;;;;;24.54;38.22;100261.46;219461;1256;140054;-68
2023/08/10 15:16:19;;;;;;;6.60;5.00;;;;;;;24.37;38.50;100258.52;218896;1256;139646;-68
2023/08/10 15:21:25;;;;;;;4.20;2.30;;;;;;;24.39;39.06;100253.19;219476;1256;139596;-68
2023/08/10 15:26:29;;;;;;;6.90;1.70;;;;;;;24.53;38.65;100255.80;219125;1256;139777;-68
2023/08/10 15:31:35;;;;;;;1.30;1.20;;;;;;;24.60;38.41;100252.85;218160;1256;140812;-70
2023/08/10 15:36:40;;;;;;;;;;;;;;;24.59;38.35;100244.80;219240;1257;140219;-71
2023/08/10 15:41:45;;;;;;;1.90;1.00;;;;;;;24.53;38.46;100246.66;218145;1257;126916;-69
2023/08/10 15:46:49;;;;;;;9.60;1.80;;;;;;;24.49;39.13;100249.38;220562;1256;139799;-70
2023/08/10 15:51:53;;;;;;;6.20;1.50;;;;;;;24.44;39.07;100255.14;220023;1255;141713;-70
2023/08/10 15:56:58;;;;;;;1.40;1.10;;;;;;;24.39;38.99;100255.73;218725;1256;140649;-69
2023/08/10 16:02:03;;;;;;;31.80;9.90;;;;;;;24.25;38.92;100250.29;220484;1256;139214;-69
2023/08/10 16:07:08;;;;;;;2.60;1.60;;;;;;;24.13;39.05;100258.77;219142;1257;140937;-69
2023/08/10 16:12:13;;;;;;;3.50;1.10;;;;;;;23.92;38.36;100253.00;218383;1256;139821;-68
2023/08/10 16:17:17;;;;;;;1.40;1.30;;;;;;;23.68;38.20;100256.14;219124;1257;138955;-70
2023/08/10 16:22:22;;;;;;;1.30;1.10;;;;;;;23.59;38.39;100253.48;219579;1256;140762;-68
2023/08/10 16:27:28;;;;;;;2.40;1.40;;;;;;;23.44;38.91;100260.72;218796;1256;140131;-73
2023/08/10 16:32:33;;;;;;;5.90;1.30;;;;;;;23.25;40.00;100253.25;219321;1255;139759;-68
2023/08/10 16:37:40;;;;;;;1.30;1.10;;;;;;;23.10;40.98;100257.60;218129;1256;139141;-68
2023/08/10 16:42:46;;;;;;;1.50;1.30;;;;;;;22.93;41.91;100257.75;219227;1256;139337;-72
2023/08/10 16:47:51;;;;;;;2.30;1.10;;;;;;;22.76;42.15;100255.86;219053;1256;139050;-71
2023/08/10 16:52:57;;;;;;;;;;;;;;;22.57;42.72;100261.63;218991;1256;139304;-67
2023/08/10 16:58:02;;;;;;;2.80;1.30;;;;;;;22.42;43.32;100265.96;219160;1257;235400;-69
2023/08/10 17:03:06;;;;;;;1.90;1.50;;;;;;;22.29;43.67;100267.67;218528;1256;139291;-70
2023/08/10 17:08:11;;;;;;;1.60;1.30;;;;;;;22.18;43.56;100270.48;217732;1259;139382;-69
2023/08/10 17:13:15;;;;;;;1.10;1.00;;;;;;;21.96;43.25;100275.23;218138;1257;141620;-70
2023/08/10 17:18:19;;;;;;;13.30;3.80;;;;;;;21.77;43.83;100274.89;217548;1257;139662;-68
2023/08/10 17:23:23;;;;;;;5.50;2.10;;;;;;;21.53;44.56;100277.04;217789;1256;139410;-72
2023/08/10 17:28:28;;;;;;;1.50;1.40;;;;;;;21.29;44.66;100287.37;218142;1257;139401;-72
2023/08/10 17:33:33;;;;;;;1.40;1.20;;;;;;;21.04;44.53;100292.61;218832;1257;139736;-74
2023/08/10 17:38:39;;;;;;;0.80;0.80;;;;;;;20.86;44.93;100296.72;218849;1257;139521;-68
2023/08/10 17:43:44;;;;;;;4.20;1.60;;;;;;;20.62;46.09;100298.57;219905;1257;141781;-69
2023/08/10 17:48:49;;;;;;;4.50;1.60;;;;;;;20.34;46.79;100298.52;218635;1256;139517;-67
2023/08/10 17:53:56;;;;;;;;;;;;;;;20.07;47.56;100302.76;219756;1256;139448;-69
2023/08/10 17:59:05;;;;;;;2.30;1.10;;;;;;;19.76;48.50;100307.16;219473;1256;126633;-73
2023/08/10 18:04:13;;;;;;;1.00;0.90;;;;;;;19.46;49.30;100306.15;219126;1257;139695;-71
2023/08/10 18:09:21;;;;;;;2.60;1.50;;;;;;;19.12;50.52;100310.15;219775;1256;139681;-70
2023/08/10 18:14:26;;;;;;;2.20;1.40;;;;;;;18.79;51.10;100315.52;218023;1257;139839;-70
2023/08/10 18:19:31;;;;;;;1.90;1.10;;;;;;;18.43;51.98;100317.34;217971;1256;139870;-70
2023/08/10 18:24:37;;;;;;;1.70;1.40;;;;;;;18.10;52.63;100323.30;218216;1256;139899;-68
2023/08/10 18:29:44;;;;;;;1.40;1.20;;;;;;;17.70;53.28;100325.41;217903;1257;140118;-69
2023/08/10 18:34:52;;;;;;;3.20;1.40;;;;;;;17.43;53.99;100330.40;218115;1259;140017;-71
2023/08/10 18:39:57;;;;;;;1.40;1.30;;;;;;;17.11;55.26;100337.68;217553;1257;141106;-69
2023/08/10 18:45:01;;;;;;;3.10;1.10;;;;;;;16.82;55.83;100341.30;218670;1256;140401;-73
2023/08/10 18:50:06;;;;;;;1.20;1.20;;;;;;;16.52;56.69;100340.98;217448;1256;150224;-69
2023/08/10 18:55:09;;;;;;;1.40;1.30;;;;;;;16.26;57.54;100346.77;218502;1257;139491;-72
2023/08/10 19:00:15;;;;;;;1.90;1.50;;;;;;;16.08;58.37;100346.04;218936;1256;141913;-74
2023/08/10 19:05:21;;;;;;;5.90;2.20;;;;;;;16.02;58.99;100354.15;217509;1259;140320;-71
2023/08/10 19:10:25;;;;;;;1.50;1.40;;;;;;;15.94;59.43;100355.30;219475;1255;140544;-69
2023/08/10 19:15:32;;;;;;;3.20;1.70;;;;;;;15.79;59.58;100353.61;218224;1256;140058;-68
2023/08/10 19:20:40;;;;;;;3.10;2.10;;;;;;;15.52;59.74;100357.44;220498;1256;139624;-73
2023/08/10 19:25:47;;;;;;;2.00;1.70;;;;;;;15.20;60.27;100354.48;220357;1256;140743;-71
2023/08/10 19:30:51;;;;;;;1.60;1.40;;;;;;;14.96;60.77;100356.59;220426;1256;139148;-72
2023/08/10 19:35:55;;;;;;;1.30;1.20;;;;;;;14.71;61.26;100364.19;219821;1256;139866;-70
2023/08/10 19:41:01;;;;;;;1.60;1.50;;;;;;;14.49;61.47;100363.05;220288;1257;140839;-73
2023/08/10 19:46:05;;;;;;;1.60;1.50;;;;;;;14.37;61.99;100368.41;220317;1256;140795;-70
2023/08/10 19:51:10;;;;;;;2.50;1.50;;;;;;;14.23;62.36;100372.47;220238;1256;141230;-69
2023/08/10 19:56:16;;;;;;;2.60;1.60;;;;;;;14.05;62.72;100377.02;217813;1258;141108;-71
2023/08/10 20:01:21;;;;;;;3.50;1.80;;;;;;;13.84;63.03;100374.98;219008;1255;141312;-71
2023/08/10 20:06:26;;;;;;;2.80;2.10;;;;;;;13.72;63.68;100377.94;220425;1256;141068;-70
2023/08/10 20:11:32;;;;;;;4.40;2.80;;;;;;;13.72;64.18;100374.97;217587;1257;141735;-73
2023/08/10 20:16:41;;;;;;;2.30;2.10;;;;;;;13.64;64.09;100375.30;218385;1257;139723;-70
2023/08/10 20:21:48;;;;;;;4.00;2.40;;;;;;;13.44;64.13;100378.27;219263;1257;140302;-71
2023/08/10 20:26:54;;;;;;;5.80;3.20;;;;;;;13.20;64.16;100379.82;218532;1257;140334;-71
2023/08/10 20:31:59;;;;;;;3.30;2.40;;;;;;;12.97;64.82;100381.23;217739;1259;141949;-72
2023/08/10 20:37:05;;;;;;;2.60;2.40;;;;;;;12.83;65.14;100380.22;219573;1257;139865;-70
2023/08/10 20:42:15;;;;;;;2.90;2.60;;;;;;;12.67;65.58;100375.43;218928;1256;141432;-73
2023/08/10 20:47:19;;;;;;;2.60;2.30;;;;;;;12.55;65.90;100372.10;217433;1257;141039;-73
2023/08/10 20:52:27;;;;;;;6.60;3.70;;;;;;;12.42;66.45;100377.05;219260;1256;140295;-70
2023/08/10 20:57:31;;;;;;;5.50;3.30;;;;;;;12.31;66.40;100378.48;217495;1256;140438;-72
2023/08/10 21:02:35;;;;;;;2.80;2.60;;;;;;;12.16;66.93;100376.05;218115;1256;140599;-70
2023/08/10 21:07:40;;;;;;;3.80;2.50;;;;;;;12.06;67.42;100372.61;218681;1259;140915;-70
2023/08/10 21:12:45;;;;;;;4.40;2.70;;;;;;;11.94;67.52;100370.73;219301;1257;140802;-70
2023/08/10 21:17:49;;;;;;;6.00;2.80;;;;;;;11.78;68.10;100372.94;220376;1258;139440;-71
2023/08/10 21:22:54;;;;;;;4.40;2.80;;;;;;;11.65;68.46;100365.04;219832;1257;141966;-69
2023/08/10 21:27:58;;;;;;;6.50;4.00;;;;;;;11.64;68.72;100365.34;219197;1257;140547;-67
2023/08/10 21:33:03;;;;;;;5.50;3.40;;;;;;;11.67;69.05;100370.66;220228;1257;140597;-70
2023/08/10 21:38:08;;;;;;;8.30;3.60;;;;;;;11.64;69.06;100371.48;220073;1257;140791;-70
2023/08/10 21:43:12;;;;;;;5.60;2.50;;;;;;;11.50;69.22;100373.30;218737;1259;140976;-70
2023/08/10 21:48:17;;;;;;;3.80;2.90;;;;;;;11.40;69.51;100369.42;219709;1257;141275;-69
2023/08/10 21:53:22;;;;;;;3.50;3.20;;;;;;;11.31;69.65;100375.26;218725;1257;141335;-71
2023/08/10 21:58:26;;;;;;;3.50;2.40;;;;;;;11.26;70.39;100375.56;218762;1257;141427;-70
2023/08/10 22:03:31;;;;;;;2.40;2.30;;;;;;;11.23;70.35;100380.70;219901;1259;141412;-73
2023/08/10 22:08:36;;;;;;;12.70;2.20;;;;;;;11.20;70.64;100382.65;218567;1259;140232;-70
2023/08/10 22:13:41;;;;;;;4.10;2.30;;;;;;;11.14;70.69;100380.74;218583;1255;140314;-71
2023/08/10 22:18:46;;;;;;;2.70;2.40;;;;;;;11.06;70.90;100381.39;218323;1257;141349;-72
2023/08/10 22:23:52;;;;;;;6.10;2.90;;;;;;;11.03;71.02;100380.89;218206;1257;140079;-70
2023/08/10 22:28:56;;;;;;;5.00;2.20;;;;;;;10.93;70.92;100382.45;218472;1256;140669;-69
2023/08/10 22:34:01;;;;;;;4.00;2.60;;;;;;;10.82;71.36;100385.67;218679;1257;140317;-71
2023/08/10 22:39:07;;;;;;;3.60;2.80;;;;;;;10.79;71.48;100389.11;218577;1257;141084;-72
2023/08/10 22:44:14;;;;;;;8.00;3.00;;;;;;;10.75;71.66;100391.48;218902;1259;140013;-71
2023/08/10 22:49:18;;;;;;;4.20;2.50;;;;;;;10.67;71.54;100388.62;218305;1259;140516;-71
2023/08/10 22:54:26;;;;;;;3.90;2.70;;;;;;;10.61;71.89;100387.03;217785;1259;140138;-69
2023/08/10 22:59:32;;;;;;;6.30;2.90;;;;;;;10.54;71.90;100384.42;220027;1257;140579;-70
2023/08/10 23:04:38;;;;;;;3.80;3.30;;;;;;;10.43;71.94;100387.50;218184;1258;140549;-70
2023/08/10 23:09:45;;;;;;;3.90;2.20;;;;;;;10.41;72.41;100387.84;220277;1257;141569;-72
2023/08/10 23:14:50;;;;;;;3.60;3.30;;;;;;;10.40;72.62;100387.13;218751;1259;141620;-73